sensor_id;sensor_type;location;lat;lon;timestamp;temperature;humidity
57030;DHT22;42920;45.306;20.448;2022-08-07T00:01:08;742.50;1996.80
57030;DHT22;42920;45.306;20.448;2022-08-07T00:03:34;742.50;1996.80
57030;DHT22;42920;45.306;20.448;2022-08-07T00:06:00;742.50;1996.80
57030;DHT22;42920;45.306;20.448;2022-08-07T00:08:26;742.50;1996.80
57030;DHT22;42920;45.306;20.448;2022-08-07T00:10:52;742.50;1996.80
57030;DHT22;42920;45.306;20.448;2022-08-07T00:13:20;742.50;1996.80
57030;DHT22;42920;45.306;20.448;2022-08-07T00:15:47;717.70;1996.80
57030;DHT22;42920;45.306;20.448;2022-08-07T00:18:17;717.70;1996.80
57030;DHT22;42920;45.306;20.448;2022-08-07T00:20:43;717.70;1996.80
57030;DHT22;42920;45.306;20.448;2022-08-07T00:23:09;717.70;2022.40
57030;DHT22;42920;45.306;20.448;2022-08-07T00:25:35;717.70;1996.80
57030;DHT22;42920;45.306;20.448;2022-08-07T00:28:01;742.40;2022.40
57030;DHT22;42920;45.306;20.448;2022-08-07T00:30:28;717.60;2022.40
57030;DHT22;42920;45.306;20.448;2022-08-07T00:32:58;717.50;2048.00
57030;DHT22;42920;45.306;20.448;2022-08-07T00:35:25;717.50;2048.00
57030;DHT22;42920;45.306;20.448;2022-08-07T00:37:51;717.30;2073.60
57030;DHT22;42920;45.306;20.448;2022-08-07T00:40:17;717.50;2048.00
57030;DHT22;42920;45.306;20.448;2022-08-07T00:42:43;717.40;2048.00
57030;DHT22;42920;45.306;20.448;2022-08-07T00:45:10;717.40;2048.00
57030;DHT22;42920;45.306;20.448;2022-08-07T00:47:36;717.50;2048.00
57030;DHT22;42920;45.306;20.448;2022-08-07T00:50:02;717.20;2073.60
57030;DHT22;42920;45.306;20.448;2022-08-07T00:52:27;717.10;2073.60
57030;DHT22;42920;45.306;20.448;2022-08-07T00:54:54;717.20;2073.60
57030;DHT22;42920;45.306;20.448;2022-08-07T00:57:24;717.10;2099.20
57030;DHT22;42920;45.306;20.448;2022-08-07T00:59:50;717.10;2124.80
57030;DHT22;42920;45.306;20.448;2022-08-07T01:02:16;717.10;2124.80
57030;DHT22;42920;45.306;20.448;2022-08-07T01:04:42;691.90;2099.20
57030;DHT22;42920;45.306;20.448;2022-08-07T01:07:08;716.90;2124.80
57030;DHT22;42920;45.306;20.448;2022-08-07T01:09:34;692.10;2150.40
57030;DHT22;42920;45.306;20.448;2022-08-07T01:12:00;716.80;2176.00
57030;DHT22;42920;45.306;20.448;2022-08-07T01:14:26;716.80;2150.40
57030;DHT22;42920;45.306;20.448;2022-08-07T01:16:52;692.10;2150.40
57030;DHT22;42920;45.306;20.448;2022-08-07T01:19:19;692.10;2150.40
57030;DHT22;42920;45.306;20.448;2022-08-07T01:21:48;692.10;2150.40
57030;DHT22;42920;45.306;20.448;2022-08-07T01:24:15;692.00;2176.00
57030;DHT22;42920;45.306;20.448;2022-08-07T01:26:41;691.90;2176.00
57030;DHT22;42920;45.306;20.448;2022-08-07T01:29:07;691.80;2176.00
57030;DHT22;42920;45.306;20.448;2022-08-07T01:31:33;691.70;2201.60
57030;DHT22;42920;45.306;20.448;2022-08-07T01:34:00;691.70;2201.60
57030;DHT22;42920;45.306;20.448;2022-08-07T01:36:28;691.70;2201.60
57030;DHT22;42920;45.306;20.448;2022-08-07T01:38:55;691.80;2201.60
57030;DHT22;42920;45.306;20.448;2022-08-07T01:41:21;691.80;2176.00
57030;DHT22;42920;45.306;20.448;2022-08-07T01:43:48;691.80;2176.00
57030;DHT22;42920;45.306;20.448;2022-08-07T01:46:18;691.80;2150.40
57030;DHT22;42920;45.306;20.448;2022-08-07T01:48:45;691.80;2150.40
57030;DHT22;42920;45.306;20.448;2022-08-07T01:51:20;691.90;2150.40
57030;DHT22;42920;45.306;20.448;2022-08-07T01:53:52;691.80;2176.00
57030;DHT22;42920;45.306;20.448;2022-08-07T01:56:36;691.50;2201.60
57030;DHT22;42920;45.306;20.448;2022-08-07T01:59:08;691.70;2176.00
57030;DHT22;42920;45.306;20.448;2022-08-07T02:01:41;691.60;2176.00
57030;DHT22;42920;45.306;20.448;2022-08-07T02:04:15;691.60;2201.60
57030;DHT22;42920;45.306;20.448;2022-08-07T02:06:43;691.50;2176.00
57030;DHT22;42920;45.306;20.448;2022-08-07T02:09:11;691.30;2227.20
57030;DHT22;42920;45.306;20.448;2022-08-07T02:11:42;691.40;2201.60
57030;DHT22;42920;45.306;20.448;2022-08-07T02:14:08;691.30;2227.20
57030;DHT22;42920;45.306;20.448;2022-08-07T02:16:36;691.30;2227.20
57030;DHT22;42920;45.306;20.448;2022-08-07T02:19:05;691.30;2201.60
57030;DHT22;42920;45.306;20.448;2022-08-07T02:21:34;691.20;2227.20
57030;DHT22;42920;45.306;20.448;2022-08-07T02:24:02;691.20;2227.20
57030;DHT22;42920;45.306;20.448;2022-08-07T02:26:29;691.20;2227.20
57030;DHT22;42920;45.306;20.448;2022-08-07T02:28:56;666.30;2278.40
57030;DHT22;42920;45.306;20.448;2022-08-07T02:31:23;666.30;2304.00
57030;DHT22;42920;45.306;20.448;2022-08-07T02:33:50;666.40;2278.40
57030;DHT22;42920;45.306;20.448;2022-08-07T02:36:18;666.40;2278.40
57030;DHT22;42920;45.306;20.448;2022-08-07T02:38:45;666.30;2278.40
57030;DHT22;42920;45.306;20.448;2022-08-07T02:41:12;666.20;2304.00
57030;DHT22;42920;45.306;20.448;2022-08-07T02:43:40;666.30;2278.40
57030;DHT22;42920;45.306;20.448;2022-08-07T02:46:08;666.20;2304.00
57030;DHT22;42920;45.306;20.448;2022-08-07T02:48:36;666.20;2304.00
57030;DHT22;42920;45.306;20.448;2022-08-07T02:51:09;666.00;2329.60
57030;DHT22;42920;45.306;20.448;2022-08-07T02:53:38;666.00;2355.20
57030;DHT22;42920;45.306;20.448;2022-08-07T02:56:12;665.90;2355.20
57030;DHT22;42920;45.306;20.448;2022-08-07T02:58:40;665.90;2355.20
57030;DHT22;42920;45.306;20.448;2022-08-07T03:01:08;666.00;2355.20
57030;DHT22;42920;45.306;20.448;2022-08-07T03:03:36;665.90;2355.20
57030;DHT22;42920;45.306;20.448;2022-08-07T03:06:03;666.00;2329.60
57030;DHT22;42920;45.306;20.448;2022-08-07T03:08:29;665.90;2355.20
57030;DHT22;42920;45.306;20.448;2022-08-07T03:10:57;666.00;2355.20
57030;DHT22;42920;45.306;20.448;2022-08-07T03:13:24;665.90;2355.20
57030;DHT22;42920;45.306;20.448;2022-08-07T03:15:50;665.90;2380.80
57030;DHT22;42920;45.306;20.448;2022-08-07T03:18:17;665.80;2380.80
57030;DHT22;42920;45.306;20.448;2022-08-07T03:20:43;665.90;2380.80
57030;DHT22;42920;45.306;20.448;2022-08-07T03:23:11;666.00;2355.20
57030;DHT22;42920;45.306;20.448;2022-08-07T03:25:40;666.00;2329.60
57030;DHT22;42920;45.306;20.448;2022-08-07T03:28:11;666.00;2355.20
57030;DHT22;42920;45.306;20.448;2022-08-07T03:30:38;666.00;2355.20
57030;DHT22;42920;45.306;20.448;2022-08-07T03:33:07;666.00;2355.20
57030;DHT22;42920;45.306;20.448;2022-08-07T03:35:34;666.00;2355.20
57030;DHT22;42920;45.306;20.448;2022-08-07T03:38:06;665.90;2380.80
57030;DHT22;42920;45.306;20.448;2022-08-07T03:40:33;665.90;2380.80
57030;DHT22;42920;45.306;20.448;2022-08-07T03:43:00;665.70;2380.80
57030;DHT22;42920;45.306;20.448;2022-08-07T03:45:27;665.90;2380.80
57030;DHT22;42920;45.306;20.448;2022-08-07T03:47:55;665.90;2380.80
57030;DHT22;42920;45.306;20.448;2022-08-07T03:50:22;665.80;2406.40
57030;DHT22;42920;45.306;20.448;2022-08-07T03:52:51;665.90;2380.80
57030;DHT22;42920;45.306;20.448;2022-08-07T03:55:17;665.90;2406.40
57030;DHT22;42920;45.306;20.448;2022-08-07T03:57:44;665.60;2432.00
57030;DHT22;42920;45.306;20.448;2022-08-07T04:00:11;665.90;2432.00
57030;DHT22;42920;45.306;20.448;2022-08-07T04:02:38;665.90;2432.00
57030;DHT22;42920;45.306;20.448;2022-08-07T04:05:07;665.60;2432.00
57030;DHT22;42920;45.306;20.448;2022-08-07T04:07:33;665.60;2432.00
57030;DHT22;42920;45.306;20.448;2022-08-07T04:10:00;640.90;2432.00
57030;DHT22;42920;45.306;20.448;2022-08-07T04:12:28;640.90;2432.00
57030;DHT22;42920;45.306;20.448;2022-08-07T04:14:55;640.90;2432.00
57030;DHT22;42920;45.306;20.448;2022-08-07T04:17:22;640.90;2432.00
57030;DHT22;42920;45.306;20.448;2022-08-07T04:19:49;665.60;2432.00
57030;DHT22;42920;45.306;20.448;2022-08-07T04:22:16;640.70;2432.00
57030;DHT22;42920;45.306;20.448;2022-08-07T04:24:42;640.80;2432.00
57030;DHT22;42920;45.306;20.448;2022-08-07T04:27:08;640.80;2432.00
57030;DHT22;42920;45.306;20.448;2022-08-07T04:29:34;640.60;2432.00
57030;DHT22;42920;45.306;20.448;2022-08-07T04:32:00;640.80;2432.00
57030;DHT22;42920;45.306;20.448;2022-08-07T04:34:26;640.80;2432.00
57030;DHT22;42920;45.306;20.448;2022-08-07T04:36:53;640.70;2432.00
57030;DHT22;42920;45.306;20.448;2022-08-07T04:39:19;640.80;2432.00
57030;DHT22;42920;45.306;20.448;2022-08-07T04:41:45;640.60;2432.00
57030;DHT22;42920;45.306;20.448;2022-08-07T04:44:10;640.80;2432.00
57030;DHT22;42920;45.306;20.448;2022-08-07T04:46:59;640.90;2432.00
57030;DHT22;42920;45.306;20.448;2022-08-07T04:52:32;640.70;2432.00
57030;DHT22;42920;45.306;20.448;2022-08-07T04:55:04;640.90;2432.00
57030;DHT22;42920;45.306;20.448;2022-08-07T04:57:53;665.60;2432.00
57030;DHT22;42920;45.306;20.448;2022-08-07T05:11:12;640.70;2432.00
57030;DHT22;42920;45.306;20.448;2022-08-07T05:13:46;640.90;2432.00
57030;DHT22;42920;45.306;20.448;2022-08-07T05:16:14;640.90;2432.00
57030;DHT22;42920;45.306;20.448;2022-08-07T05:18:50;640.90;2432.00
57030;DHT22;42920;45.306;20.448;2022-08-07T05:21:21;665.60;2432.00
57030;DHT22;42920;45.306;20.448;2022-08-07T05:23:52;665.70;2432.00
57030;DHT22;42920;45.306;20.448;2022-08-07T05:26:22;665.60;2432.00
57030;DHT22;42920;45.306;20.448;2022-08-07T05:28:51;665.60;2432.00
57030;DHT22;42920;45.306;20.448;2022-08-07T05:31:22;665.60;2432.00
57030;DHT22;42920;45.306;20.448;2022-08-07T05:33:51;665.70;2432.00
57030;DHT22;42920;45.306;20.448;2022-08-07T05:36:19;665.70;2432.00
57030;DHT22;42920;45.306;20.448;2022-08-07T05:38:45;665.70;2432.00
57030;DHT22;42920;45.306;20.448;2022-08-07T05:41:12;665.90;2432.00
57030;DHT22;42920;45.306;20.448;2022-08-07T05:43:39;665.80;2432.00
57030;DHT22;42920;45.306;20.448;2022-08-07T05:46:05;665.90;2432.00
57030;DHT22;42920;45.306;20.448;2022-08-07T05:48:31;665.90;2432.00
57030;DHT22;42920;45.306;20.448;2022-08-07T05:50:59;666.00;2432.00
57030;DHT22;42920;45.306;20.448;2022-08-07T05:53:26;666.10;2432.00
57030;DHT22;42920;45.306;20.448;2022-08-07T05:55:53;666.00;2432.00
57030;DHT22;42920;45.306;20.448;2022-08-07T05:58:22;666.20;2432.00
57030;DHT22;42920;45.306;20.448;2022-08-07T06:00:49;666.30;2432.00
57030;DHT22;42920;45.306;20.448;2022-08-07T06:03:17;666.50;2406.40
57030;DHT22;42920;45.306;20.448;2022-08-07T06:05:46;666.30;2406.40
57030;DHT22;42920;45.306;20.448;2022-08-07T06:08:15;666.30;2406.40
57030;DHT22;42920;45.306;20.448;2022-08-07T06:10:41;666.30;2406.40
57030;DHT22;42920;45.306;20.448;2022-08-07T06:13:08;666.50;2406.40
57030;DHT22;42920;45.306;20.448;2022-08-07T06:15:35;666.50;2380.80
57030;DHT22;42920;45.306;20.448;2022-08-07T06:18:02;691.20;2380.80
57030;DHT22;42920;45.306;20.448;2022-08-07T06:20:29;691.30;2329.60
57030;DHT22;42920;45.306;20.448;2022-08-07T06:22:56;691.30;2329.60
57030;DHT22;42920;45.306;20.448;2022-08-07T06:25:22;691.40;2304.00
57030;DHT22;42920;45.306;20.448;2022-08-07T06:27:48;691.50;2278.40
57030;DHT22;42920;45.306;20.448;2022-08-07T06:30:14;691.40;2304.00
57030;DHT22;42920;45.306;20.448;2022-08-07T06:32:39;691.60;2278.40
57030;DHT22;42920;45.306;20.448;2022-08-07T06:35:06;691.60;2252.80
57030;DHT22;42920;45.306;20.448;2022-08-07T06:37:31;691.60;2252.80
57030;DHT22;42920;45.306;20.448;2022-08-07T06:39:57;691.60;2252.80
57030;DHT22;42920;45.306;20.448;2022-08-07T06:42:30;691.80;2201.60
57030;DHT22;42920;45.306;20.448;2022-08-07T06:45:05;691.90;2201.60
57030;DHT22;42920;45.306;20.448;2022-08-07T06:47:33;691.90;2227.20
57030;DHT22;42920;45.306;20.448;2022-08-07T06:49:59;692.00;2201.60
57030;DHT22;42920;45.306;20.448;2022-08-07T06:52:32;716.80;2252.80
57030;DHT22;42920;45.306;20.448;2022-08-07T06:54:59;716.80;2201.60
57030;DHT22;42920;45.306;20.448;2022-08-07T06:57:27;692.10;2150.40
57030;DHT22;42920;45.306;20.448;2022-08-07T06:59:54;716.90;2176.00
57030;DHT22;42920;45.306;20.448;2022-08-07T07:02:21;716.80;2124.80
57030;DHT22;42920;45.306;20.448;2022-08-07T07:04:50;717.00;2099.20
57030;DHT22;42920;45.306;20.448;2022-08-07T07:07:16;717.20;2073.60
57030;DHT22;42920;45.306;20.448;2022-08-07T07:09:49;717.00;2073.60
57030;DHT22;42920;45.306;20.448;2022-08-07T07:12:40;717.10;2124.80
57030;DHT22;42920;45.306;20.448;2022-08-07T07:15:17;717.10;2099.20
57030;DHT22;42920;45.306;20.448;2022-08-07T07:17:53;717.40;2048.00
57030;DHT22;42920;45.306;20.448;2022-08-07T07:20:26;717.40;2048.00
57030;DHT22;42920;45.306;20.448;2022-08-07T07:22:54;717.50;2022.40
57030;DHT22;42920;45.306;20.448;2022-08-07T07:25:20;717.60;1996.80
57030;DHT22;42920;45.306;20.448;2022-08-07T07:27:56;717.40;2022.40
57030;DHT22;42920;45.306;20.448;2022-08-07T07:30:26;717.50;2022.40
57030;DHT22;42920;45.306;20.448;2022-08-07T07:32:56;742.40;1996.80
57030;DHT22;42920;45.306;20.448;2022-08-07T07:35:23;742.40;1971.20
57030;DHT22;42920;45.306;20.448;2022-08-07T07:37:50;742.50;1971.20
57030;DHT22;42920;45.306;20.448;2022-08-07T07:40:19;742.50;1945.60
57030;DHT22;42920;45.306;20.448;2022-08-07T07:42:49;742.60;1945.60
57030;DHT22;42920;45.306;20.448;2022-08-07T07:45:17;742.60;1945.60
57030;DHT22;42920;45.306;20.448;2022-08-07T07:47:45;742.60;1945.60
57030;DHT22;42920;45.306;20.448;2022-08-07T07:50:13;742.60;1920.00
57030;DHT22;42920;45.306;20.448;2022-08-07T07:52:41;742.90;1920.00
57030;DHT22;42920;45.306;20.448;2022-08-07T07:55:08;742.90;1894.40
57030;DHT22;42920;45.306;20.448;2022-08-07T07:57:34;742.90;1894.40
57030;DHT22;42920;45.306;20.448;2022-08-07T08:00:03;742.90;1868.80
57030;DHT22;42920;45.306;20.448;2022-08-07T08:02:32;742.90;1868.80
57030;DHT22;42920;45.306;20.448;2022-08-07T08:05:02;743.00;1868.80
57030;DHT22;42920;45.306;20.448;2022-08-07T08:07:28;742.90;1868.80
57030;DHT22;42920;45.306;20.448;2022-08-07T08:09:56;742.80;1920.00
57030;DHT22;42920;45.306;20.448;2022-08-07T08:12:23;742.90;1843.20
57030;DHT22;42920;45.306;20.448;2022-08-07T08:14:49;742.90;1868.80
57030;DHT22;42920;45.306;20.448;2022-08-07T08:17:16;743.00;1868.80
57030;DHT22;42920;45.306;20.448;2022-08-07T08:19:43;743.00;1868.80
57030;DHT22;42920;45.306;20.448;2022-08-07T08:22:10;742.90;1843.20
57030;DHT22;42920;45.306;20.448;2022-08-07T08:24:55;743.00;1843.20
57030;DHT22;42920;45.306;20.448;2022-08-07T08:27:41;742.90;1868.80
57030;DHT22;42920;45.306;20.448;2022-08-07T08:30:12;743.20;1817.60
57030;DHT22;42920;45.306;20.448;2022-08-07T08:32:42;743.30;1817.60
57030;DHT22;42920;45.306;20.448;2022-08-07T08:35:11;743.10;1817.60
57030;DHT22;42920;45.306;20.448;2022-08-07T08:37:39;743.20;1792.00
57030;DHT22;42920;45.306;20.448;2022-08-07T08:40:09;743.30;1792.00
57030;DHT22;42920;45.306;20.448;2022-08-07T08:45:40;743.30;1792.00
57030;DHT22;42920;45.306;20.448;2022-08-07T08:48:17;768.00;1792.00
57030;DHT22;42920;45.306;20.448;2022-08-07T08:50:51;768.00;1792.00
57030;DHT22;42920;45.306;20.448;2022-08-07T08:53:32;768.00;1766.40
57030;DHT22;42920;45.306;20.448;2022-08-07T08:56:07;768.20;1766.40
57030;DHT22;42920;45.306;20.448;2022-08-07T09:01:30;768.40;1715.20
57030;DHT22;42920;45.306;20.448;2022-08-07T09:06:52;768.40;1740.80
57030;DHT22;42920;45.306;20.448;2022-08-07T09:12:35;768.50;1715.20
57030;DHT22;42920;45.306;20.448;2022-08-07T09:24:02;768.70;1689.60
57030;DHT22;42920;45.306;20.448;2022-08-07T09:39:59;794.30;1612.80
57030;DHT22;42920;45.306;20.448;2022-08-07T09:42:55;794.40;1587.20
57030;DHT22;42920;45.306;20.448;2022-08-07T09:54:14;819.60;1536.00
57030;DHT22;42920;45.306;20.448;2022-08-07T09:57:03;819.60;1536.00
57030;DHT22;42920;45.306;20.448;2022-08-07T10:17:31;845.50;1408.00
57030;DHT22;42920;45.306;20.448;2022-08-07T10:39:36;870.80;1331.20
57030;DHT22;42920;45.306;20.448;2022-08-07T10:44:51;871.00;1305.60
57030;DHT22;42920;45.306;20.448;2022-08-07T10:47:44;871.10;1305.60
57030;DHT22;42920;45.306;20.448;2022-08-07T10:50:20;871.10;1305.60
57030;DHT22;42920;45.306;20.448;2022-08-07T10:58:30;871.20;1280.00
57030;DHT22;42920;45.306;20.448;2022-08-07T11:09:24;896.50;1254.40
57030;DHT22;42920;45.306;20.448;2022-08-07T11:12:16;896.30;1254.40
57030;DHT22;42920;45.306;20.448;2022-08-07T11:14:53;896.50;1254.40
57030;DHT22;42920;45.306;20.448;2022-08-07T11:20:05;896.50;1254.40
57030;DHT22;42920;45.306;20.448;2022-08-07T11:25:17;896.60;1203.20
57030;DHT22;42920;45.306;20.448;2022-08-07T11:28:07;896.50;1228.80
57030;DHT22;42920;45.306;20.448;2022-08-07T11:33:30;896.80;1228.80
57030;DHT22;42920;45.306;20.448;2022-08-07T11:36:22;896.90;1203.20
57030;DHT22;42920;45.306;20.448;2022-08-07T11:39:22;896.80;1228.80
57030;DHT22;42920;45.306;20.448;2022-08-07T11:42:01;921.60;1203.20
57030;DHT22;42920;45.306;20.448;2022-08-07T11:44:48;921.80;1203.20
57030;DHT22;42920;45.306;20.448;2022-08-07T11:47:34;922.00;1203.20
57030;DHT22;42920;45.306;20.448;2022-08-07T11:58:59;922.00;1177.60
57030;DHT22;42920;45.306;20.448;2022-08-07T12:01:45;922.20;1203.20
57030;DHT22;42920;45.306;20.448;2022-08-07T12:06:53;922.30;1177.60
57030;DHT22;42920;45.306;20.448;2022-08-07T12:09:35;922.30;1177.60
57030;DHT22;42920;45.306;20.448;2022-08-07T12:12:09;922.30;1177.60
57030;DHT22;42920;45.306;20.448;2022-08-07T12:14:57;947.20;1177.60
57030;DHT22;42920;45.306;20.448;2022-08-07T12:17:39;922.50;1152.00
57030;DHT22;42920;45.306;20.448;2022-08-07T12:20:22;947.30;1152.00
57030;DHT22;42920;45.306;20.448;2022-08-07T12:23:03;947.30;1152.00
57030;DHT22;42920;45.306;20.448;2022-08-07T12:25:40;947.30;1152.00
57030;DHT22;42920;45.306;20.448;2022-08-07T12:28:23;947.20;1152.00
57030;DHT22;42920;45.306;20.448;2022-08-07T12:30:56;947.30;1126.40
57030;DHT22;42920;45.306;20.448;2022-08-07T12:33:27;947.20;1126.40
57030;DHT22;42920;45.306;20.448;2022-08-07T12:35:54;947.40;1126.40
57030;DHT22;42920;45.306;20.448;2022-08-07T12:38:22;947.50;1152.00
57030;DHT22;42920;45.306;20.448;2022-08-07T12:40:51;947.60;1126.40
57030;DHT22;42920;45.306;20.448;2022-08-07T12:43:21;947.60;1126.40
57030;DHT22;42920;45.306;20.448;2022-08-07T12:45:52;947.60;1152.00
57030;DHT22;42920;45.306;20.448;2022-08-07T12:48:31;947.70;1126.40
57030;DHT22;42920;45.306;20.448;2022-08-07T12:53:52;947.60;1152.00
57030;DHT22;42920;45.306;20.448;2022-08-07T12:56:30;947.80;1126.40
57030;DHT22;42920;45.306;20.448;2022-08-07T12:58:57;947.60;1126.40
57030;DHT22;42920;45.306;20.448;2022-08-07T13:07:21;947.30;1152.00
57030;DHT22;42920;45.306;20.448;2022-08-07T13:10:29;947.20;1152.00
57030;DHT22;42920;45.306;20.448;2022-08-07T13:21:52;947.50;1126.40
57030;DHT22;42920;45.306;20.448;2022-08-07T13:24:39;947.60;1126.40
57030;DHT22;42920;45.306;20.448;2022-08-07T13:27:28;947.60;1126.40
57030;DHT22;42920;45.306;20.448;2022-08-07T13:30:03;947.30;1126.40
57030;DHT22;42920;45.306;20.448;2022-08-07T13:35:43;947.60;1126.40
57030;DHT22;42920;45.306;20.448;2022-08-07T13:43:23;947.70;1126.40
57030;DHT22;42920;45.306;20.448;2022-08-07T13:45:59;947.80;1126.40
57030;DHT22;42920;45.306;20.448;2022-08-07T13:48:29;947.70;1126.40
57030;DHT22;42920;45.306;20.448;2022-08-07T13:50:57;947.70;1100.80
57030;DHT22;42920;45.306;20.448;2022-08-07T13:53:29;947.60;1100.80
57030;DHT22;42920;45.306;20.448;2022-08-07T13:55:57;947.50;1126.40
57030;DHT22;42920;45.306;20.448;2022-08-07T13:58:25;947.60;1100.80
57030;DHT22;42920;45.306;20.448;2022-08-07T14:01:14;947.60;1126.40
57030;DHT22;42920;45.306;20.448;2022-08-07T14:03:41;947.70;1100.80
57030;DHT22;42920;45.306;20.448;2022-08-07T14:06:10;947.70;1100.80
57030;DHT22;42920;45.306;20.448;2022-08-07T14:08:45;947.60;1126.40
57030;DHT22;42920;45.306;20.448;2022-08-07T14:11:16;947.50;1100.80
57030;DHT22;42920;45.306;20.448;2022-08-07T14:13:46;947.50;1126.40
57030;DHT22;42920;45.306;20.448;2022-08-07T14:16:15;947.40;1126.40
57030;DHT22;42920;45.306;20.448;2022-08-07T14:18:49;947.50;1126.40
57030;DHT22;42920;45.306;20.448;2022-08-07T14:21:17;947.30;1126.40
57030;DHT22;42920;45.306;20.448;2022-08-07T14:23:58;947.30;1126.40
57030;DHT22;42920;45.306;20.448;2022-08-07T14:26:30;947.30;1126.40
57030;DHT22;42920;45.306;20.448;2022-08-07T14:28:59;947.20;1126.40
57030;DHT22;42920;45.306;20.448;2022-08-07T14:31:26;947.20;1126.40
57030;DHT22;42920;45.306;20.448;2022-08-07T14:33:53;947.20;1126.40
57030;DHT22;42920;45.306;20.448;2022-08-07T14:36:20;947.20;1126.40
57030;DHT22;42920;45.306;20.448;2022-08-07T14:38:47;922.50;1126.40
57030;DHT22;42920;45.306;20.448;2022-08-07T14:41:21;922.50;1152.00
57030;DHT22;42920;45.306;20.448;2022-08-07T14:43:51;947.20;1126.40
57030;DHT22;42920;45.306;20.448;2022-08-07T14:46:18;947.20;1126.40
57030;DHT22;42920;45.306;20.448;2022-08-07T14:48:46;947.20;1126.40
57030;DHT22;42920;45.306;20.448;2022-08-07T14:51:18;922.50;1126.40
57030;DHT22;42920;45.306;20.448;2022-08-07T14:53:46;922.50;1126.40
57030;DHT22;42920;45.306;20.448;2022-08-07T14:56:17;922.50;1126.40
57030;DHT22;42920;45.306;20.448;2022-08-07T14:58:48;922.40;1126.40
57030;DHT22;42920;45.306;20.448;2022-08-07T15:01:15;922.40;1126.40
57030;DHT22;42920;45.306;20.448;2022-08-07T15:03:43;922.50;1126.40
57030;DHT22;42920;45.306;20.448;2022-08-07T15:06:11;922.40;1126.40
57030;DHT22;42920;45.306;20.448;2022-08-07T15:08:41;922.30;1126.40
57030;DHT22;42920;45.306;20.448;2022-08-07T15:11:12;922.20;1126.40
57030;DHT22;42920;45.306;20.448;2022-08-07T15:16:18;922.10;1126.40
57030;DHT22;42920;45.306;20.448;2022-08-07T15:18:49;922.20;1126.40
57030;DHT22;42920;45.306;20.448;2022-08-07T15:21:23;922.20;1126.40
57030;DHT22;42920;45.306;20.448;2022-08-07T15:23:53;922.10;1152.00
57030;DHT22;42920;45.306;20.448;2022-08-07T15:26:21;922.10;1126.40
57030;DHT22;42920;45.306;20.448;2022-08-07T15:28:56;922.00;1126.40
57030;DHT22;42920;45.306;20.448;2022-08-07T15:31:24;922.00;1126.40
57030;DHT22;42920;45.306;20.448;2022-08-07T15:33:57;922.00;1152.00
57030;DHT22;42920;45.306;20.448;2022-08-07T15:36:23;922.00;1152.00
57030;DHT22;42920;45.306;20.448;2022-08-07T15:38:51;922.10;1152.00
57030;DHT22;42920;45.306;20.448;2022-08-07T15:41:21;921.80;1152.00
57030;DHT22;42920;45.306;20.448;2022-08-07T15:44:08;921.80;1152.00
57030;DHT22;42920;45.306;20.448;2022-08-07T15:46:36;921.70;1152.00
57030;DHT22;42920;45.306;20.448;2022-08-07T15:49:06;921.70;1152.00
57030;DHT22;42920;45.306;20.448;2022-08-07T15:51:35;921.80;1152.00
57030;DHT22;42920;45.306;20.448;2022-08-07T15:54:01;921.70;1152.00
57030;DHT22;42920;45.306;20.448;2022-08-07T15:56:33;921.60;1152.00
57030;DHT22;42920;45.306;20.448;2022-08-07T15:59:04;896.90;1152.00
57030;DHT22;42920;45.306;20.448;2022-08-07T16:01:38;921.60;1152.00
57030;DHT22;42920;45.306;20.448;2022-08-07T16:04:06;896.90;1152.00
57030;DHT22;42920;45.306;20.448;2022-08-07T16:06:41;921.60;1177.60
57030;DHT22;42920;45.306;20.448;2022-08-07T16:09:19;921.60;1152.00
57030;DHT22;42920;45.306;20.448;2022-08-07T16:23:59;896.60;1152.00
57030;DHT22;42920;45.306;20.448;2022-08-07T16:26:34;896.50;1152.00
57030;DHT22;42920;45.306;20.448;2022-08-07T16:32:02;896.20;1152.00
57030;DHT22;42920;45.306;20.448;2022-08-07T16:40:17;896.00;1177.60
57030;DHT22;42920;45.306;20.448;2022-08-07T16:45:54;871.20;1203.20
57030;DHT22;42920;45.306;20.448;2022-08-07T16:54:06;871.10;1177.60
57030;DHT22;42920;45.306;20.448;2022-08-07T16:59:52;871.00;1203.20
57030;DHT22;42920;45.306;20.448;2022-08-07T17:07:52;870.70;1203.20
57030;DHT22;42920;45.306;20.448;2022-08-07T17:10:51;870.70;1228.80
57030;DHT22;42920;45.306;20.448;2022-08-07T17:16:14;870.70;1228.80
57030;DHT22;42920;45.306;20.448;2022-08-07T17:21:30;870.70;1228.80
57030;DHT22;42920;45.306;20.448;2022-08-07T17:27:10;870.40;1254.40
57030;DHT22;42920;45.306;20.448;2022-08-07T17:30:01;870.40;1254.40
57030;DHT22;42920;45.306;20.448;2022-08-07T17:35:27;845.60;1254.40
57030;DHT22;42920;45.306;20.448;2022-08-07T17:38:16;845.60;1254.40
57030;DHT22;42920;45.306;20.448;2022-08-07T17:40:55;845.60;1254.40
57030;DHT22;42920;45.306;20.448;2022-08-07T17:43:30;845.50;1254.40
57030;DHT22;42920;45.306;20.448;2022-08-07T17:46:14;845.40;1280.00
57030;DHT22;42920;45.306;20.448;2022-08-07T17:51:45;845.30;1280.00
57030;DHT22;42920;45.306;20.448;2022-08-07T17:54:23;845.20;1280.00
57030;DHT22;42920;45.306;20.448;2022-08-07T17:57:19;845.20;1305.60
57030;DHT22;42920;45.306;20.448;2022-08-07T17:59:58;845.10;1305.60
57030;DHT22;42920;45.306;20.448;2022-08-07T18:02:51;844.90;1305.60
57030;DHT22;42920;45.306;20.448;2022-08-07T18:06:12;844.90;1305.60
57030;DHT22;42920;45.306;20.448;2022-08-07T18:08:26;844.80;1305.60
57030;DHT22;42920;45.306;20.448;2022-08-07T18:19:07;819.90;1331.20
57030;DHT22;42920;45.306;20.448;2022-08-07T18:21:39;819.90;1331.20
57030;DHT22;42920;45.306;20.448;2022-08-07T18:27:13;819.80;1331.20
57030;DHT22;42920;45.306;20.448;2022-08-07T18:35:22;819.40;1356.80
57030;DHT22;42920;45.306;20.448;2022-08-07T18:41:02;819.60;1382.40
57030;DHT22;42920;45.306;20.448;2022-08-07T18:46:26;819.30;1382.40
57030;DHT22;42920;45.306;20.448;2022-08-07T18:49:09;819.20;1382.40
57030;DHT22;42920;45.306;20.448;2022-08-07T18:51:46;794.50;1408.00
57030;DHT22;42920;45.306;20.448;2022-08-07T18:57:17;794.50;1408.00